Time;durP1;ratioP1;P1;durP2;ratioP2;P2;SDS_P1;SDS_P2;PMS_P1;PMS_P2;Temp;Humidity;BMP_temperature;BMP_pressure;BME280_temperature;BME280_humidity;BME280_pressure;Samples;Min_cycle;Max_cycle;Signal;HPM_P1;HPM_P2
2021/03/05 00:00:44;;;;;;;28.25;15.00;;;3.50;99.90;;;;;;5016108;28;20120;-60
2021/03/05 00:03:10;;;;;;;29.15;14.00;;;3.50;99.90;;;;;;5006611;28;20034;-61
2021/03/05 00:05:38;;;;;;;30.42;13.63;;;3.60;99.90;;;;;;4999173;28;20045;-61
2021/03/05 00:08:05;;;;;;;30.88;11.93;;;3.50;99.90;;;;;;5009142;28;20057;-61
2021/03/05 00:10:32;;;;;;;29.40;11.23;;;3.50;99.90;;;;;;5008941;28;20141;-61
2021/03/05 00:12:58;;;;;;;27.73;11.55;;;3.50;99.90;;;;;;5010146;28;20363;-62
2021/03/05 00:15:25;;;;;;;28.42;11.93;;;3.50;99.90;;;;;;5002931;28;20049;-60
2021/03/05 00:17:51;;;;;;;31.27;12.18;;;3.40;99.90;;;;;;5008858;28;20034;-61
2021/03/05 00:20:22;;;;;;;28.30;11.23;;;3.40;99.90;;;;;;5018704;28;20095;-60
2021/03/05 00:22:48;;;;;;;31.67;13.13;;;3.30;99.90;;;;;;5014232;28;20029;-59
2021/03/05 00:25:14;;;;;;;34.80;13.00;;;3.30;99.90;;;;;;5021975;28;20399;-62
2021/03/05 00:27:40;;;;;;;36.30;14.27;;;3.30;99.90;;;;;;5001902;28;20134;-62
2021/03/05 00:30:07;;;;;;;33.33;13.73;;;3.20;99.90;;;;;;5015564;28;20079;-60
2021/03/05 00:32:34;;;;;;;37.10;13.68;;;3.30;99.90;;;;;;5001499;28;20494;-62
2021/03/05 00:34:59;;;;;;;30.92;12.52;;;3.20;99.90;;;;;;5021095;28;20041;-62
2021/03/05 00:37:25;;;;;;;46.95;15.13;;;3.20;99.90;;;;;;5014381;28;20029;-62
2021/03/05 00:39:50;;;;;;;31.42;12.25;;;3.20;99.90;;;;;;5022566;28;20466;-62
2021/03/05 00:42:16;;;;;;;33.58;13.15;;;3.20;99.90;;;;;;5014293;28;20125;-62
2021/03/05 00:44:42;;;;;;;30.80;13.57;;;3.20;99.90;;;;;;5007491;28;20446;-61
2021/03/05 00:47:07;;;;;;;30.25;12.77;;;3.20;99.90;;;;;;5010744;28;20030;-62
2021/03/05 00:49:33;;;;;;;31.15;11.93;;;3.10;99.90;;;;;;5002694;28;20029;-62
2021/03/05 00:51:58;;;;;;;31.98;12.80;;;3.10;99.90;;;;;;4970901;28;20042;-60
2021/03/05 00:54:24;;;;;;;30.25;12.80;;;3.00;99.90;;;;;;5002967;28;20060;-61
2021/03/05 00:56:49;;;;;;;33.97;12.77;;;3.00;99.90;;;;;;4995242;28;20038;-61
2021/03/05 00:59:15;;;;;;;35.88;13.70;;;2.90;99.90;;;;;;5014203;28;20029;-61
2021/03/05 01:01:40;;;;;;;41.83;13.70;;;2.90;99.90;;;;;;5010956;28;20029;-62
2021/03/05 01:04:06;;;;;;;35.58;13.60;;;2.70;99.90;;;;;;5009717;28;20057;-62
2021/03/05 01:06:31;;;;;;;28.80;13.13;;;2.70;99.90;;;;;;4996842;28;20042;-61
2021/03/05 01:08:57;;;;;;;28.85;12.43;;;2.60;99.90;;;;;;5009091;28;20057;-62
2021/03/05 01:11:23;;;;;;;30.35;12.43;;;2.60;99.90;;;;;;4980490;28;20125;-62
2021/03/05 01:13:49;;;;;;;28.95;11.75;;;2.60;99.90;;;;;;5012667;28;20094;-61
2021/03/05 01:16:15;;;;;;;27.73;12.35;;;2.50;99.90;;;;;;5018052;28;20491;-62
2021/03/05 01:18:41;;;;;;;29.35;13.30;;;2.50;99.90;;;;;;4998721;28;20060;-57
2021/03/05 01:21:06;;;;;;;32.70;12.57;;;2.50;99.90;;;;;;5016687;28;20121;-62
2021/03/05 01:23:32;;;;;;;40.88;13.75;;;2.50;99.90;;;;;;5002870;28;20029;-62
2021/03/05 01:25:58;;;;;;;35.35;13.05;;;2.40;99.90;;;;;;5015503;28;20030;-61
2021/03/05 01:28:24;;;;;;;31.20;12.45;;;2.30;99.90;;;;;;4998088;28;20033;-61
2021/03/05 01:30:49;;;;;;;38.15;14.80;;;2.30;99.90;;;;;;5012012;28;20029;-61
2021/03/05 01:33:15;;;;;;;36.42;12.52;;;2.20;99.90;;;;;;5017666;28;20041;-61
2021/03/05 01:35:41;;;;;;;38.88;13.50;;;2.20;99.90;;;;;;5011739;28;20449;-62
2021/03/05 01:38:07;;;;;;;30.67;13.32;;;2.20;99.90;;;;;;5016608;28;20033;-61
2021/03/05 01:40:39;;;;;;;43.70;13.90;;;2.20;99.90;;;;;;5001678;28;20025;-60
2021/03/05 01:43:07;;;;;;;43.17;15.52;;;2.20;99.90;;;;;;5014674;28;20029;-61
2021/03/05 01:45:33;;;;;;;41.35;15.40;;;2.20;99.90;;;;;;4999245;28;20049;-61
2021/03/05 01:48:04;;;;;;;49.95;15.95;;;2.20;99.90;;;;;;5009227;28;20569;-62
2021/03/05 01:50:33;;;;;;;37.95;16.00;;;2.20;99.90;;;;;;5020444;28;20479;-61
2021/03/05 01:53:05;;;;;;;35.38;15.07;;;2.20;99.90;;;;;;4964142;28;20403;-61
2021/03/05 01:55:30;;;;;;;40.13;13.20;;;2.20;99.90;;;;;;5007055;28;20069;-61
2021/03/05 01:57:57;;;;;;;33.42;14.15;;;2.20;99.90;;;;;;4997030;28;20053;-60
2021/03/05 02:00:32;;;;;;;39.55;12.23;;;2.20;99.90;;;;;;5014033;28;20037;-60
2021/03/05 02:02:58;;;;;;;39.63;13.18;;;2.20;99.90;;;;;;4998081;28;20129;-61
2021/03/05 02:05:24;;;;;;;29.45;12.93;;;2.20;99.90;;;;;;5008939;28;20116;-61
2021/03/05 02:07:49;;;;;;;32.40;11.68;;;2.20;99.90;;;;;;4999685;28;20058;-61
2021/03/05 02:10:15;;;;;;;32.90;12.55;;;2.20;99.90;;;;;;5013390;28;20539;-61
2021/03/05 02:12:41;;;;;;;29.48;11.77;;;2.30;99.90;;;;;;5006749;28;20076;-59
2021/03/05 02:15:08;;;;;;;37.72;11.57;;;2.30;99.90;;;;;;5008270;28;20034;-62
2021/03/05 02:17:44;;;;;;;35.97;10.88;;;2.30;99.90;;;;;;5024985;28;20061;-62
2021/03/05 02:20:19;;;;;;;30.35;11.25;;;2.30;99.90;;;;;;5007886;28;20034;-62
2021/03/05 02:22:56;;;;;;;37.45;10.48;;;2.30;99.90;;;;;;5001767;28;20033;-62
2021/03/05 02:26:01;;;;;;;34.83;11.38;;;2.30;99.90;;;;;;5014008;28;20037;-61
2021/03/05 02:28:57;;;;;;;29.77;10.50;;;2.40;99.90;;;;;;4977956;28;20022;-61
2021/03/05 02:31:41;;;;;;;37.67;10.65;;;2.40;99.90;;;;;;4963525;28;20274;-61
2021/03/05 02:34:26;;;;;;;22.48;9.40;;;2.40;99.90;;;;;;5008003;28;20038;-61
2021/03/05 02:36:57;;;;;;;36.92;10.45;;;2.40;99.90;;;;;;5003613;28;20033;-61
2021/03/05 02:39:51;;;;;;;32.13;8.30;;;2.40;99.90;;;;;;5013859;28;20034;-61
2021/03/05 02:42:24;;;;;;;22.40;7.82;;;2.40;99.90;;;;;;5012888;28;20042;-60
2021/03/05 02:45:09;;;;;;;26.08;8.38;;;2.50;99.90;;;;;;5012217;28;20027;-61
2021/03/05 02:47:37;;;;;;;24.67;7.85;;;2.50;99.90;;;;;;5009368;28;20034;-62
2021/03/05 02:50:03;;;;;;;27.88;7.55;;;2.40;99.90;;;;;;5008326;28;20101;-61
2021/03/05 02:52:33;;;;;;;28.48;7.43;;;2.40;99.90;;;;;;4988353;28;20157;-61
2021/03/05 02:55:02;;;;;;;35.50;8.20;;;2.40;99.90;;;;;;5005964;28;20018;-61
2021/03/05 02:57:31;;;;;;;28.25;8.52;;;2.40;99.90;;;;;;4999190;28;20499;-62
2021/03/05 02:59:58;;;;;;;30.02;9.55;;;2.40;99.90;;;;;;5004954;28;20386;-60
2021/03/05 03:02:26;;;;;;;23.20;9.23;;;2.40;99.90;;;;;;5007621;28;20064;-60
2021/03/05 03:04:56;;;;;;;25.27;9.32;;;2.40;99.90;;;;;;5017605;28;20034;-62
2021/03/05 03:07:22;;;;;;;27.05;8.98;;;2.30;99.90;;;;;;5014994;28;20022;-62
2021/03/05 03:09:48;;;;;;;32.78;9.80;;;2.40;99.90;;;;;;5017071;28;20025;-62
2021/03/05 03:12:16;;;;;;;33.80;9.70;;;2.40;99.90;;;;;;5016528;28;20030;-61
2021/03/05 03:14:44;;;;;;;31.48;11.40;;;2.30;99.90;;;;;;5019999;28;20025;-62
2021/03/05 03:17:11;;;;;;;34.15;12.18;;;2.20;99.90;;;;;;5019745;28;20026;-61
2021/03/05 03:19:39;;;;;;;35.95;11.60;;;2.30;99.90;;;;;;5026960;28;20033;-61
2021/03/05 03:22:05;;;;;;;40.67;11.55;;;2.30;99.90;;;;;;5020393;28;20129;-60
2021/03/05 03:24:31;;;;;;;39.00;11.10;;;2.30;99.90;;;;;;5027397;28;20021;-61
2021/03/05 03:26:58;;;;;;;29.38;12.50;;;2.30;99.90;;;;;;5019538;28;20121;-61
2021/03/05 03:29:25;;;;;;;40.13;13.10;;;2.30;99.90;;;;;;5024409;28;20102;-61
2021/03/05 03:31:50;;;;;;;40.00;13.27;;;2.30;99.90;;;;;;5023413;28;20394;-61
2021/03/05 03:34:17;;;;;;;42.83;15.02;;;2.40;99.90;;;;;;5020778;28;20156;-62
2021/03/05 03:36:43;;;;;;;38.58;13.88;;;2.40;99.90;;;;;;5020140;28;20486;-60
2021/03/05 03:39:10;;;;;;;38.10;12.82;;;2.40;99.90;;;;;;5020013;28;20030;-60
2021/03/05 03:41:37;;;;;;;44.25;14.43;;;2.40;99.90;;;;;;5026196;28;20105;-61
2021/03/05 03:44:06;;;;;;;39.50;13.77;;;2.40;99.90;;;;;;5020466;28;20034;-61
2021/03/05 03:46:33;;;;;;;46.67;14.70;;;2.40;99.90;;;;;;5026906;28;20116;-61
2021/03/05 03:49:05;;;;;;;41.50;14.70;;;2.40;99.90;;;;;;5020159;28;20815;-62
2021/03/05 03:51:36;;;;;;;42.70;14.55;;;2.50;99.90;;;;;;5018688;28;20041;-62
2021/03/05 03:54:02;;;;;;;45.78;15.52;;;2.50;99.90;;;;;;4982801;28;20038;-62
2021/03/05 03:56:32;;;;;;;38.80;14.55;;;2.50;99.90;;;;;;5019701;28;20030;-61
2021/03/05 03:59:00;;;;;;;34.08;13.50;;;2.50;99.90;;;;;;5017522;28;20372;-62
2021/03/05 04:01:26;;;;;;;39.17;13.65;;;2.50;99.90;;;;;;5019190;28;20030;-62
2021/03/05 04:03:53;;;;;;;32.90;13.98;;;2.50;99.90;;;;;;5012388;28;20495;-62
2021/03/05 04:06:24;;;;;;;42.00;14.48;;;2.40;99.90;;;;;;5021645;28;20567;-59
2021/03/05 04:08:52;;;;;;;30.73;13.20;;;2.30;99.90;;;;;;5015797;28;20022;-62
2021/03/05 04:11:19;;;;;;;38.35;16.80;;;2.30;99.90;;;;;;5022612;28;20018;-62
2021/03/05 04:13:45;;;;;;;36.33;14.65;;;2.30;99.90;;;;;;5017453;28;20037;-62
2021/03/05 04:16:11;;;;;;;39.85;15.25;;;2.30;99.90;;;;;;5016907;28;20033;-61
2021/03/05 04:18:38;;;;;;;43.40;17.80;;;2.30;99.90;;;;;;5013686;28;20022;-61
2021/03/05 04:21:09;;;;;;;31.45;14.80;;;2.30;99.90;;;;;;5023055;28;20030;-61
2021/03/05 04:23:35;;;;;;;35.72;13.93;;;2.30;99.90;;;;;;5009611;28;20430;-61
2021/03/05 04:26:01;;;;;;;32.50;15.07;;;2.40;99.90;;;;;;5018513;28;20026;-61
2021/03/05 04:28:27;;;;;;;41.28;16.83;;;2.40;99.90;;;;;;5013715;28;20025;-61
2021/03/05 04:30:53;;;;;;;44.55;16.80;;;2.30;99.90;;;;;;5023256;28;20022;-62
2021/03/05 04:33:19;;;;;;;34.33;15.68;;;2.40;99.90;;;;;;5013734;28;20056;-61
2021/03/05 04:35:44;;;;;;;47.85;18.38;;;2.40;99.90;;;;;;5023070;28;20029;-60
2021/03/05 04:38:10;;;;;;;36.30;16.73;;;2.40;99.90;;;;;;5021702;28;20032;-61
2021/03/05 04:40:35;;;;;;;39.55;16.27;;;2.30;99.90;;;;;;5022483;28;20426;-61
2021/03/05 04:43:01;;;;;;;35.63;16.60;;;2.40;99.90;;;;;;5022735;28;20028;-61
2021/03/05 04:45:27;;;;;;;42.10;16.60;;;2.40;99.90;;;;;;5024503;28;20041;-60
2021/03/05 04:47:52;;;;;;;36.97;16.48;;;2.40;99.90;;;;;;5021007;28;20414;-61
2021/03/05 04:50:18;;;;;;;38.20;17.67;;;2.40;99.90;;;;;;5020500;28;20026;-60
2021/03/05 04:52:43;;;;;;;45.38;19.98;;;2.50;99.90;;;;;;4977423;28;20026;-60
2021/03/05 04:55:09;;;;;;;36.72;16.80;;;2.50;99.90;;;;;;5013939;28;20021;-59
2021/03/05 04:57:35;;;;;;;38.80;16.95;;;2.50;99.90;;;;;;5016088;28;20026;-61
2021/03/05 05:00:01;;;;;;;34.60;16.73;;;2.60;99.90;;;;;;5018744;28;20400;-60
2021/03/05 05:02:26;;;;;;;35.13;16.88;;;2.60;99.90;;;;;;5006246;28;20108;-61
2021/03/05 05:04:52;;;;;;;41.05;16.38;;;2.60;99.90;;;;;;5007270;28;20076;-60
2021/03/05 05:07:17;;;;;;;36.88;17.88;;;2.60;99.90;;;;;;5009837;28;20030;-59
2021/03/05 05:09:43;;;;;;;34.63;16.15;;;2.60;99.90;;;;;;5013442;28;20029;-60
2021/03/05 05:12:09;;;;;;;36.05;16.40;;;2.50;99.90;;;;;;5013879;28;20066;-58
2021/03/05 05:14:34;;;;;;;37.13;17.42;;;2.60;99.90;;;;;;5016725;28;20037;-60
2021/03/05 05:17:02;;;;;;;33.28;15.80;;;2.60;99.90;;;;;;4994495;28;20121;-60
2021/03/05 05:19:27;;;;;;;31.75;15.98;;;2.60;99.90;;;;;;5017886;28;20026;-61
2021/03/05 05:21:53;;;;;;;31.10;16.35;;;2.60;99.90;;;;;;5016287;28;20080;-60
2021/03/05 05:24:19;;;;;;;30.63;16.02;;;2.60;99.90;;;;;;5018229;28;20029;-60
2021/03/05 05:26:44;;;;;;;31.00;14.82;;;2.60;99.90;;;;;;5007238;28;20038;-62
2021/03/05 05:29:10;;;;;;;33.30;16.42;;;2.60;99.90;;;;;;5020456;28;20117;-59
2021/03/05 05:31:35;;;;;;;32.28;17.13;;;2.60;99.90;;;;;;5002332;28;20065;-59
2021/03/05 05:34:01;;;;;;;35.50;15.68;;;2.50;99.90;;;;;;5001838;28;20076;-60
2021/03/05 05:36:26;;;;;;;24.05;14.57;;;2.50;99.90;;;;;;5014903;28;20026;-61
2021/03/05 05:38:52;;;;;;;25.33;15.02;;;2.50;99.90;;;;;;5016590;28;20513;-61
2021/03/05 05:41:22;;;;;;;29.55;16.08;;;2.50;99.90;;;;;;5005980;28;20493;-62
2021/03/05 05:43:48;;;;;;;26.35;15.02;;;2.60;99.90;;;;;;5002453;28;20029;-59
2021/03/05 05:46:17;;;;;;;28.80;15.00;;;2.60;99.90;;;;;;5016458;28;20113;-59
2021/03/05 05:48:46;;;;;;;29.63;14.38;;;2.60;99.90;;;;;;5006643;28;20272;-61
2021/03/05 05:51:21;;;;;;;26.88;14.00;;;2.60;99.90;;;;;;5010849;28;20022;-60
2021/03/05 05:53:47;;;;;;;27.02;15.35;;;2.50;99.90;;;;;;4960670;28;20069;-59
2021/03/05 05:56:15;;;;;;;25.35;14.15;;;2.50;99.90;;;;;;5008551;28;20534;-61
2021/03/05 05:58:41;;;;;;;29.13;13.52;;;2.50;99.90;;;;;;5008718;28;20087;-62
2021/03/05 06:01:07;;;;;;;24.02;12.70;;;2.50;99.90;;;;;;5009432;28;20041;-60
2021/03/05 06:03:33;;;;;;;19.50;12.00;;;2.50;99.90;;;;;;5010438;28;20033;-61
2021/03/05 06:06:00;;;;;;;21.70;13.50;;;2.50;99.90;;;;;;5007108;28;20037;-60
2021/03/05 06:08:27;;;;;;;20.35;11.63;;;2.50;99.90;;;;;;5007984;28;20062;-60
2021/03/05 06:10:53;;;;;;;23.38;11.35;;;2.50;99.90;;;;;;5007582;28;20026;-62
2021/03/05 06:13:25;;;;;;;19.08;12.20;;;2.40;99.90;;;;;;5008366;28;20033;-61
2021/03/05 06:16:16;;;;;;;21.45;11.82;;;2.40;99.90;;;;;;5017378;28;20040;-60
2021/03/05 06:18:42;;;;;;;21.13;11.73;;;2.40;99.90;;;;;;5011644;28;20029;-61
2021/03/05 06:21:08;;;;;;;22.40;11.60;;;2.40;99.90;;;;;;5009318;28;20058;-60
2021/03/05 06:23:35;;;;;;;22.20;12.35;;;2.40;99.90;;;;;;5000508;28;20079;-62
2021/03/05 06:26:02;;;;;;;21.15;11.45;;;2.40;99.90;;;;;;5009361;28;20109;-61
2021/03/05 06:28:28;;;;;;;23.83;12.60;;;2.50;99.90;;;;;;5008821;28;20044;-61
2021/03/05 06:30:54;;;;;;;20.45;11.60;;;2.40;99.90;;;;;;5008719;28;20026;-62
2021/03/05 06:33:30;;;;;;;27.48;12.63;;;2.40;99.90;;;;;;5011885;28;20495;-61
2021/03/05 06:36:13;;;;;;;19.42;11.18;;;2.40;99.90;;;;;;5019800;28;20105;-61
2021/03/05 06:38:44;;;;;;;21.35;11.43;;;2.40;99.90;;;;;;5017872;28;20025;-62
2021/03/05 06:41:23;;;;;;;21.15;12.13;;;2.40;99.90;;;;;;5021265;28;20033;-58
2021/03/05 06:43:50;;;;;;;23.65;12.38;;;2.50;99.90;;;;;;5003292;28;20026;-62
2021/03/05 06:46:35;;;;;;;21.67;13.05;;;2.50;99.90;;;;;;5007801;28;20030;-60
2021/03/05 06:49:12;;;;;;;20.08;11.80;;;2.50;99.90;;;;;;5018956;28;20389;-62
2021/03/05 06:51:38;;;;;;;17.55;11.02;;;2.60;99.90;;;;;;5016080;28;20032;-62
2021/03/05 06:54:14;;;;;;;19.65;11.75;;;2.60;99.90;;;;;;5006762;28;20029;-61
2021/03/05 06:56:48;;;;;;;17.55;11.52;;;2.60;99.90;;;;;;5014552;28;20036;-61
2021/03/05 06:59:15;;;;;;;20.98;12.02;;;2.70;99.90;;;;;;5018211;28;20025;-61
2021/03/05 07:01:58;;;;;;;20.95;11.75;;;2.60;99.90;;;;;;5020519;28;20094;-60
2021/03/05 07:04:24;;;;;;;18.83;11.38;;;2.50;99.90;;;;;;5018585;28;20060;-59
2021/03/05 07:07:20;;;;;;;20.08;12.30;;;2.50;99.90;;;;;;5020460;28;20049;-61
2021/03/05 07:09:55;;;;;;;23.05;13.15;;;2.50;99.90;;;;;;5019474;28;20037;-59
2021/03/05 07:12:25;;;;;;;20.52;12.77;;;2.50;99.90;;;;;;5015935;28;20495;-62
2021/03/05 07:15:10;;;;;;;26.25;13.13;;;2.70;99.90;;;;;;5017182;28;20033;-61
2021/03/05 07:17:35;;;;;;;20.05;13.00;;;3.00;99.90;;;;;;5018188;28;20403;-62
2021/03/05 07:20:02;;;;;;;19.30;11.80;;;3.20;99.90;;;;;;5020924;28;20030;-62
2021/03/05 07:22:29;;;;;;;18.10;11.50;;;3.20;99.90;;;;;;5019846;28;20022;-62
2021/03/05 07:24:56;;;;;;;19.35;11.50;;;3.10;99.90;;;;;;5019469;28;20026;-61
2021/03/05 07:27:39;;;;;;;16.35;10.82;;;3.00;99.90;;;;;;5019798;28;20026;-60
2021/03/05 07:30:11;;;;;;;17.00;10.68;;;2.90;99.90;;;;;;5017822;28;20577;-61
2021/03/05 07:32:42;;;;;;;16.42;10.00;;;2.90;99.90;;;;;;5017764;28;20492;-62
2021/03/05 07:35:41;;;;;;;16.25;9.60;;;2.90;99.90;;;;;;5020842;28;20696;-62
2021/03/05 07:38:18;;;;;;;16.33;9.68;;;3.00;99.90;;;;;;5014975;28;20048;-62
2021/03/05 07:40:44;;;;;;;15.77;9.70;;;3.00;99.90;;;;;;5020587;28;20159;-62
2021/03/05 07:43:10;;;;;;;16.83;9.68;;;3.00;99.90;;;;;;5022214;28;20040;-61
2021/03/05 07:45:37;;;;;;;14.60;9.25;;;3.10;99.90;;;;;;5026342;28;20026;-61
2021/03/05 07:48:08;;;;;;;13.82;8.73;;;3.10;99.90;;;;;;5021997;28;20030;-61
2021/03/05 07:50:34;;;;;;;12.75;8.70;;;3.20;99.90;;;;;;5017635;28;20548;-60
2021/03/05 07:53:00;;;;;;;13.98;7.47;;;3.20;99.90;;;;;;5022121;28;20036;-61
2021/03/05 07:55:40;;;;;;;11.25;6.80;;;3.20;99.90;;;;;;5021042;28;20025;-61
2021/03/05 07:58:07;;;;;;;11.82;7.05;;;3.30;99.90;;;;;;5016023;28;20041;-62
2021/03/05 08:00:50;;;;;;;11.23;7.30;;;3.30;99.90;;;;;;5014587;28;20395;-62
2021/03/05 08:03:18;;;;;;;12.43;6.50;;;3.40;99.90;;;;;;5008292;28;20100;-61
2021/03/05 08:05:46;;;;;;;12.10;5.78;;;3.40;99.90;;;;;;5020154;28;20029;-61
2021/03/05 08:08:23;;;;;;;9.05;5.70;;;3.50;99.90;;;;;;5010895;28;20026;-62
2021/03/05 08:11:03;;;;;;;11.75;6.18;;;3.50;99.90;;;;;;5025705;28;20029;-62
2021/03/05 08:13:51;;;;;;;9.57;5.95;;;3.50;99.90;;;;;;5024249;28;20057;-62
2021/03/05 08:16:38;;;;;;;12.63;5.80;;;3.60;99.90;;;;;;5017670;28;20033;-62
2021/03/05 08:19:04;;;;;;;11.48;6.88;;;3.50;99.90;;;;;;5014422;28;20104;-62
2021/03/05 08:21:48;;;;;;;10.27;5.47;;;3.60;99.90;;;;;;5017600;28;20130;-61
2021/03/05 08:24:20;;;;;;;10.70;6.30;;;3.60;99.90;;;;;;5018197;28;20033;-61
2021/03/05 08:27:05;;;;;;;13.40;5.70;;;3.70;99.90;;;;;;5014772;28;20060;-61
2021/03/05 08:29:49;;;;;;;11.13;5.57;;;3.80;99.90;;;;;;5021903;28;20505;-60
2021/03/05 08:32:36;;;;;;;9.30;5.82;;;3.70;99.90;;;;;;5016027;28;20030;-61
2021/03/05 08:35:06;;;;;;;11.65;6.80;;;3.70;99.90;;;;;;5014899;28;20077;-61
2021/03/05 08:37:36;;;;;;;11.88;6.47;;;3.80;99.90;;;;;;5020072;28;20034;-62
2021/03/05 08:40:14;;;;;;;15.38;5.57;;;3.80;99.90;;;;;;5023779;28;20026;-62
2021/03/05 08:42:43;;;;;;;14.60;5.70;;;3.70;99.90;;;;;;5022180;28;20082;-60
2021/03/05 08:45:29;;;;;;;11.00;5.35;;;3.70;99.90;;;;;;5026880;28;20025;-61
2021/03/05 08:48:02;;;;;;;8.02;4.85;;;3.50;99.90;;;;;;5010058;28;20113;-61
2021/03/05 08:50:31;;;;;;;11.05;5.35;;;3.60;99.90;;;;;;5014769;28;20022;-63
2021/03/05 08:53:02;;;;;;;10.35;5.93;;;3.60;99.90;;;;;;5006090;28;20088;-63
2021/03/05 08:55:32;;;;;;;7.72;4.85;;;3.70;99.90;;;;;;5006123;28;20043;-62
2021/03/05 08:57:59;;;;;;;9.00;5.15;;;3.70;99.90;;;;;;5004806;28;20733;-62
2021/03/05 09:00:33;;;;;;;12.70;6.03;;;3.60;99.90;;;;;;5005134;28;20038;-62
2021/03/05 09:03:15;;;;;;;7.30;5.25;;;3.60;99.90;;;;;;5006915;28;20403;-62
2021/03/05 09:05:49;;;;;;;8.35;4.78;;;3.60;99.90;;;;;;5003473;28;20025;-62
2021/03/05 09:08:19;;;;;;;9.23;4.65;;;3.70;99.90;;;;;;5008804;28;20018;-60
2021/03/05 09:10:46;;;;;;;8.93;4.88;;;3.70;99.90;;;;;;5014147;28;20088;-63
2021/03/05 09:13:14;;;;;;;8.65;4.38;;;3.70;99.90;;;;;;5010317;28;20401;-62
2021/03/05 09:15:46;;;;;;;6.50;4.03;;;3.70;99.90;;;;;;5014111;28;20053;-63
2021/03/05 09:18:15;;;;;;;6.45;3.78;;;3.70;99.90;;;;;;5006064;28;20030;-62
2021/03/05 09:20:45;;;;;;;7.97;4.18;;;3.70;99.90;;;;;;5021860;28;20057;-62
2021/03/05 09:23:20;;;;;;;6.95;3.80;;;4.10;99.90;;;;;;5013854;28;20566;-61
2021/03/05 09:25:51;;;;;;;8.50;3.67;;;4.80;99.90;;;;;;5008471;28;20053;-62
2021/03/05 09:28:17;;;;;;;6.95;4.25;;;5.30;99.90;;;;;;5018069;28;20022;-61
2021/03/05 09:30:56;;;;;;;6.88;4.00;;;6.00;99.90;;;;;;5007577;28;20021;-64
2021/03/05 09:33:30;;;;;;;10.60;3.97;;;6.30;99.90;;;;;;5020865;28;20029;-63
2021/03/05 09:36:00;;;;;;;7.45;4.15;;;6.70;99.90;;;;;;5021526;28;20056;-62
2021/03/05 09:38:26;;;;;;;10.55;5.75;;;7.00;99.90;;;;;;5008381;28;20041;-63
2021/03/05 09:40:51;;;;;;;7.20;4.10;;;7.30;99.00;;;;;;5019983;28;20029;-63
2021/03/05 09:43:17;;;;;;;6.40;3.55;;;7.30;99.90;;;;;;5018704;28;20052;-64
2021/03/05 09:45:49;;;;;;;5.65;3.22;;;7.60;98.10;;;;;;5015180;28;20030;-63
2021/03/05 09:48:35;;;;;;;7.43;3.65;;;7.70;96.50;;;;;;5011915;28;20021;-62
2021/03/05 09:51:08;;;;;;;4.82;3.25;;;8.00;99.20;;;;;;5019775;28;20029;-62
2021/03/05 09:53:35;;;;;;;6.35;3.50;;;7.90;97.90;;;;;;5001665;28;20105;-63
2021/03/05 09:56:03;;;;;;;6.57;3.75;;;8.10;96.00;;;;;;5015476;28;20391;-63
2021/03/05 09:58:29;;;;;;;5.65;3.50;;;8.50;96.00;;;;;;5007136;28;20054;-63
2021/03/05 10:00:56;;;;;;;6.20;3.60;;;8.70;96.20;;;;;;5017521;28;20068;-62
2021/03/05 10:03:22;;;;;;;7.07;4.05;;;9.10;96.50;;;;;;5005565;28;20046;-62
2021/03/05 10:05:48;;;;;;;4.88;2.85;;;9.20;92.40;;;;;;5024071;28;20521;-62
2021/03/05 10:08:16;;;;;;;6.50;3.08;;;9.10;93.50;;;;;;5007117;28;20034;-62
2021/03/05 10:11:03;;;;;;;3.42;2.60;;;9.50;90.30;;;;;;5016847;28;20022;-63
2021/03/05 10:13:41;;;;;;;6.20;3.25;;;9.30;88.80;;;;;;5005762;28;20041;-61
2021/03/05 10:16:25;;;;;;;4.57;2.72;;;9.40;92.90;;;;;;5005236;28;20061;-63
2021/03/05 10:19:25;;;;;;;10.55;3.28;;;9.40;90.90;;;;;;5011905;28;20715;-63
2021/03/05 10:21:53;;;;;;;4.25;3.35;;;10.00;89.80;;;;;;4999408;28;20125;-63
2021/03/05 10:24:26;;;;;;;5.43;3.15;;;9.80;90.00;;;;;;5013937;28;20034;-61
2021/03/05 10:27:11;;;;;;;10.27;4.30;;;9.60;84.60;;;;;;5011891;28;20030;-62
2021/03/05 10:29:44;;;;;;;5.45;2.95;;;8.80;91.00;;;;;;5020293;28;20045;-62
2021/03/05 10:32:27;;;;;;;8.25;3.17;;;7.70;92.40;;;;;;5012916;28;20447;-63
2021/03/05 10:34:54;;;;;;;3.67;2.72;;;7.30;94.80;;;;;;5018026;28;20644;-62
2021/03/05 10:37:21;;;;;;;4.55;3.20;;;6.90;95.60;;;;;;5011116;28;20084;-61
2021/03/05 10:39:48;;;;;;;8.13;4.35;;;6.50;97.10;;;;;;5016607;28;20037;-63
2021/03/05 10:42:18;;;;;;;4.90;3.28;;;6.10;96.90;;;;;;5007301;28;20103;-63
2021/03/05 10:44:46;;;;;;;4.88;2.67;;;5.90;98.70;;;;;;5007502;28;20120;-62
2021/03/05 10:47:13;;;;;;;8.48;3.42;;;6.00;98.10;;;;;;5013297;28;20042;-61
2021/03/05 10:49:41;;;;;;;6.25;3.00;;;6.10;99.30;;;;;;5017469;28;20034;-63
2021/03/05 10:52:10;;;;;;;6.20;3.10;;;6.40;97.40;;;;;;5004955;28;20025;-62
2021/03/05 10:54:36;;;;;;;5.22;2.92;;;6.50;97.10;;;;;;5003850;28;20054;-62
2021/03/05 10:57:02;;;;;;;5.57;2.90;;;6.50;97.10;;;;;;5021666;28;20036;-61
2021/03/05 10:59:27;;;;;;;4.78;2.75;;;6.60;97.60;;;;;;5021346;28;20403;-61
2021/03/05 11:01:54;;;;;;;6.03;3.03;;;6.70;97.70;;;;;;5018835;28;20057;-60
2021/03/05 11:04:23;;;;;;;5.47;3.00;;;6.90;97.00;;;;;;5012052;28;20048;-62
2021/03/05 11:06:49;;;;;;;5.28;3.05;;;6.90;95.80;;;;;;5003402;28;20088;-61
2021/03/05 11:09:16;;;;;;;4.03;2.50;;;7.00;96.40;;;;;;5006676;28;20062;-62
2021/03/05 11:11:42;;;;;;;5.07;2.90;;;7.00;95.50;;;;;;5019573;28;20026;-62
2021/03/05 11:14:09;;;;;;;5.15;3.00;;;6.70;96.60;;;;;;5016217;28;20075;-61
2021/03/05 11:16:34;;;;;;;5.63;2.55;;;6.50;96.30;;;;;;5022707;28;20030;-61
2021/03/05 11:19:01;;;;;;;4.43;2.78;;;6.10;96.20;;;;;;5013569;28;20131;-62
2021/03/05 11:21:26;;;;;;;4.65;2.85;;;5.60;97.80;;;;;;5010329;28;20184;-62
2021/03/05 11:23:54;;;;;;;5.45;2.90;;;5.50;97.80;;;;;;5013872;28;20567;-63
2021/03/05 11:26:20;;;;;;;4.82;2.88;;;5.30;97.40;;;;;;5009645;28;20030;-61
2021/03/05 11:28:45;;;;;;;5.80;3.20;;;5.30;98.30;;;;;;5010233;28;20600;-61
2021/03/05 11:31:12;;;;;;;6.88;2.70;;;5.50;99.10;;;;;;5018319;28;20063;-62
2021/03/05 11:33:39;;;;;;;6.95;2.53;;;5.50;98.50;;;;;;5010756;28;20033;-61
2021/03/05 11:36:06;;;;;;;7.03;2.72;;;5.60;97.30;;;;;;5007320;28;20038;-62
2021/03/05 11:38:32;;;;;;;4.90;2.50;;;5.70;98.10;;;;;;5008826;28;20030;-62
2021/03/05 11:40:58;;;;;;;7.57;3.28;;;6.00;96.90;;;;;;5004574;28;20096;-62
2021/03/05 11:43:24;;;;;;;9.98;3.67;;;5.80;97.80;;;;;;5011477;28;20045;-61
2021/03/05 11:45:50;;;;;;;9.23;4.05;;;5.90;98.90;;;;;;5019030;28;20038;-62
2021/03/05 11:48:15;;;;;;;8.25;3.50;;;6.00;99.20;;;;;;5001984;28;20088;-61
2021/03/05 11:50:41;;;;;;;7.00;3.40;;;6.00;99.20;;;;;;5005174;28;20026;-62
2021/03/05 11:53:07;;;;;;;6.45;3.78;;;5.80;97.30;;;;;;5004613;28;20112;-63
2021/03/05 11:55:33;;;;;;;3.80;2.78;;;5.50;99.50;;;;;;4989920;28;20057;-61
2021/03/05 11:58:00;;;;;;;7.80;3.30;;;5.40;98.90;;;;;;5000066;28;20038;-62
2021/03/05 12:00:26;;;;;;;5.63;2.75;;;5.40;99.10;;;;;;5006432;28;20068;-63
2021/03/05 12:02:51;;;;;;;6.15;3.80;;;5.40;99.60;;;;;;4998102;28;20080;-60
2021/03/05 12:05:17;;;;;;;7.30;3.50;;;5.50;99.90;;;;;;5000149;28;20491;-62
2021/03/05 12:07:42;;;;;;;6.65;3.60;;;5.50;99.90;;;;;;5005861;28;20025;-61
2021/03/05 12:10:09;;;;;;;6.13;3.78;;;5.70;99.90;;;;;;5018709;28;20025;-62
2021/03/05 12:12:34;;;;;;;5.75;3.20;;;5.70;99.90;;;;;;5013692;28;20026;-61
2021/03/05 12:15:00;;;;;;;7.45;3.33;;;5.70;98.80;;;;;;4989467;28;580129;-62
2021/03/05 12:17:25;;;;;;;6.05;3.75;;;5.70;98.10;;;;;;5007350;28;20448;-63
2021/03/05 12:19:51;;;;;;;4.45;2.92;;;5.60;98.40;;;;;;5014516;28;20030;-61
2021/03/05 12:22:16;;;;;;;7.20;3.40;;;5.60;99.70;;;;;;5007685;28;20026;-61
2021/03/05 12:24:42;;;;;;;5.43;3.15;;;5.80;99.10;;;;;;5009811;28;20680;-62
2021/03/05 12:27:08;;;;;;;5.68;3.03;;;5.80;96.80;;;;;;5000612;28;20803;-61
2021/03/05 12:29:33;;;;;;;5.85;3.28;;;5.80;97.50;;;;;;4998858;28;20395;-63
2021/03/05 12:31:59;;;;;;;5.55;3.50;;;5.80;97.50;;;;;;4999108;28;20142;-60
2021/03/05 12:34:24;;;;;;;6.32;3.13;;;5.70;99.00;;;;;;5007823;28;20026;-61
2021/03/05 12:36:50;;;;;;;4.53;3.03;;;5.70;97.50;;;;;;5008553;28;20022;-62
2021/03/05 12:39:17;;;;;;;7.72;3.35;;;5.70;97.50;;;;;;5010868;28;20108;-62
2021/03/05 12:41:42;;;;;;;4.78;3.05;;;5.60;96.00;;;;;;5013795;28;20636;-62
2021/03/05 12:44:08;;;;;;;4.85;2.83;;;5.50;96.80;;;;;;5025636;28;20029;-60
2021/03/05 12:46:35;;;;;;;4.93;3.45;;;5.30;96.10;;;;;;5006631;28;20030;-61
2021/03/05 12:49:01;;;;;;;10.00;3.45;;;5.20;97.50;;;;;;5016443;28;20030;-62
2021/03/05 12:51:26;;;;;;;5.90;3.70;;;5.00;97.00;;;;;;5007111;28;20092;-61
2021/03/05 12:53:52;;;;;;;5.38;3.28;;;5.10;97.90;;;;;;5008286;28;20511;-62
2021/03/05 12:56:17;;;;;;;7.53;3.78;;;5.20;99.80;;;;;;5009511;28;20042;-62